sensor_id;sensor_type;location;lat;lon;timestamp;pressure;altitude;pressure_sealevel;temperature;humidity
65376;BME280;51976;47.332;9.404;2023-05-10T00:00:50;92214.50;;;11.67;77.10
65376;BME280;51976;47.332;9.404;2023-05-10T00:03:16;92265.88;;;11.90;78.21
65376;BME280;51976;47.332;9.404;2023-05-10T00:05:41;92265.50;;;11.82;78.16
65376;BME280;51976;47.332;9.404;2023-05-10T00:08:07;92267.59;;;11.85;78.13
65376;BME280;51976;47.332;9.404;2023-05-10T00:10:32;92179.19;;;11.28;77.73
65376;BME280;51976;47.332;9.404;2023-05-10T00:12:57;92092.88;;;10.78;77.41
65376;BME280;51976;47.332;9.404;2023-05-10T00:15:23;92167.00;;;11.30;77.45
65376;BME280;51976;47.332;9.404;2023-05-10T00:17:48;92201.28;;;11.43;77.99
65376;BME280;51976;47.332;9.404;2023-05-10T00:20:14;92269.50;;;11.71;78.43
65376;BME280;51976;47.332;9.404;2023-05-10T00:22:39;92261.44;;;11.44;79.37
65376;BME280;51976;47.332;9.404;2023-05-10T00:25:05;92272.53;;;11.42;80.72
65376;BME280;51976;47.332;9.404;2023-05-10T00:27:31;92222.25;;;10.64;82.13
65376;BME280;51976;47.332;9.404;2023-05-10T00:29:56;92292.94;;;10.75;84.03
65376;BME280;51976;47.332;9.404;2023-05-10T00:32:22;92285.28;;;10.82;84.20
65376;BME280;51976;47.332;9.404;2023-05-10T00:34:47;92284.88;;;10.75;84.28
65376;BME280;51976;47.332;9.404;2023-05-10T00:37:12;92277.06;;;10.60;83.73
65376;BME280;51976;47.332;9.404;2023-05-10T00:39:38;92301.81;;;10.62;83.73
65376;BME280;51976;47.332;9.404;2023-05-10T00:42:03;92256.25;;;10.46;83.44
65376;BME280;51976;47.332;9.404;2023-05-10T00:44:29;92313.63;;;10.79;83.16
65376;BME280;51976;47.332;9.404;2023-05-10T00:46:56;92323.25;;;10.99;82.18
65376;BME280;51976;47.332;9.404;2023-05-10T00:49:22;92317.34;;;10.97;80.59
65376;BME280;51976;47.332;9.404;2023-05-10T00:51:47;92321.66;;;10.98;80.46
65376;BME280;51976;47.332;9.404;2023-05-10T00:54:14;92319.91;;;11.21;80.02
65376;BME280;51976;47.332;9.404;2023-05-10T00:56:40;92260.13;;;10.87;79.17
65376;BME280;51976;47.332;9.404;2023-05-10T00:59:07;92326.00;;;11.13;79.08
65376;BME280;51976;47.332;9.404;2023-05-10T01:01:33;92321.09;;;11.15;78.99
65376;BME280;51976;47.332;9.404;2023-05-10T01:03:59;92326.53;;;10.96;79.64
65376;BME280;51976;47.332;9.404;2023-05-10T01:06:24;92329.16;;;11.01;79.62
65376;BME280;51976;47.332;9.404;2023-05-10T01:08:50;92230.53;;;10.54;78.61
65376;BME280;51976;47.332;9.404;2023-05-10T01:11:15;92326.88;;;11.22;78.05
65376;BME280;51976;47.332;9.404;2023-05-10T01:13:42;92279.81;;;11.01;77.20
65376;BME280;51976;47.332;9.404;2023-05-10T01:16:08;92315.16;;;10.99;77.92
65376;BME280;51976;47.332;9.404;2023-05-10T01:18:37;92269.56;;;10.57;78.67
65376;BME280;51976;47.332;9.404;2023-05-10T01:21:23;92234.09;;;10.36;78.58
65376;BME280;51976;47.332;9.404;2023-05-10T01:24:32;92315.91;;;10.72;78.40
65376;BME280;51976;47.332;9.404;2023-05-10T01:27:13;92323.63;;;10.79;78.29
65376;BME280;51976;47.332;9.404;2023-05-10T01:32:56;92327.47;;;10.92;78.54
65376;BME280;51976;47.332;9.404;2023-05-10T01:35:47;92323.84;;;10.96;78.90
65376;BME280;51976;47.332;9.404;2023-05-10T01:38:20;92302.69;;;10.90;78.51
65376;BME280;51976;47.332;9.404;2023-05-10T01:41:03;92334.88;;;11.13;78.41
65376;BME280;51976;47.332;9.404;2023-05-10T01:43:49;92341.38;;;11.12;78.61
65376;BME280;51976;47.332;9.404;2023-05-10T01:46:23;92260.13;;;10.40;78.94
65376;BME280;51976;47.332;9.404;2023-05-10T01:48:52;92346.72;;;10.85;79.67
65376;BME280;51976;47.332;9.404;2023-05-10T01:51:22;92342.63;;;11.01;79.67
65376;BME280;51976;47.332;9.404;2023-05-10T01:53:49;92302.06;;;10.79;79.24
65376;BME280;51976;47.332;9.404;2023-05-10T01:56:19;92325.50;;;10.78;79.86
65376;BME280;51976;47.332;9.404;2023-05-10T01:58:48;92344.16;;;10.61;80.97
65376;BME280;51976;47.332;9.404;2023-05-10T02:01:15;92319.31;;;10.45;80.76
65376;BME280;51976;47.332;9.404;2023-05-10T02:03:42;92318.28;;;10.60;80.57
65376;BME280;51976;47.332;9.404;2023-05-10T02:06:10;92329.94;;;10.88;79.43
65376;BME280;51976;47.332;9.404;2023-05-10T02:08:38;92342.84;;;10.91;79.58
65376;BME280;51976;47.332;9.404;2023-05-10T02:11:05;92331.41;;;10.80;79.80
65376;BME280;51976;47.332;9.404;2023-05-10T02:13:33;92331.41;;;10.80;79.91
65376;BME280;51976;47.332;9.404;2023-05-10T02:16:01;92338.63;;;10.99;78.39
65376;BME280;51976;47.332;9.404;2023-05-10T02:18:28;92343.53;;;10.97;78.76
65376;BME280;51976;47.332;9.404;2023-05-10T02:20:55;92262.34;;;10.38;78.35
65376;BME280;51976;47.332;9.404;2023-05-10T02:23:23;92313.69;;;10.61;78.75
65376;BME280;51976;47.332;9.404;2023-05-10T02:25:49;92341.22;;;10.90;78.68
65376;BME280;51976;47.332;9.404;2023-05-10T02:28:17;92346.84;;;10.94;78.56
65376;BME280;51976;47.332;9.404;2023-05-10T02:30:43;92284.88;;;10.42;78.38
65376;BME280;51976;47.332;9.404;2023-05-10T02:33:09;92351.31;;;10.98;78.24
65376;BME280;51976;47.332;9.404;2023-05-10T02:35:36;92299.94;;;10.76;77.47
65376;BME280;51976;47.332;9.404;2023-05-10T02:38:04;92352.75;;;11.09;77.07
65376;BME280;51976;47.332;9.404;2023-05-10T02:40:30;92341.63;;;10.97;77.67
65376;BME280;51976;47.332;9.404;2023-05-10T02:42:56;92339.47;;;11.13;77.03
65376;BME280;51976;47.332;9.404;2023-05-10T02:45:27;92340.38;;;11.08;77.00
65376;BME280;51976;47.332;9.404;2023-05-10T02:47:53;92342.59;;;11.20;76.26
65376;BME280;51976;47.332;9.404;2023-05-10T02:50:19;92337.66;;;11.08;75.97
65376;BME280;51976;47.332;9.404;2023-05-10T02:52:50;92331.09;;;11.14;75.93
65376;BME280;51976;47.332;9.404;2023-05-10T02:55:21;92247.69;;;10.58;75.24
65376;BME280;51976;47.332;9.404;2023-05-10T02:57:57;92228.13;;;10.52;74.79
65376;BME280;51976;47.332;9.404;2023-05-10T03:00:24;92320.28;;;11.14;74.39
65376;BME280;51976;47.332;9.404;2023-05-10T03:02:50;92332.19;;;11.27;73.65
65376;BME280;51976;47.332;9.404;2023-05-10T03:05:15;92305.38;;;11.03;74.60
65376;BME280;51976;47.332;9.404;2023-05-10T03:07:41;92332.34;;;10.90;75.54
65376;BME280;51976;47.332;9.404;2023-05-10T03:10:07;92284.22;;;10.50;76.36
65376;BME280;51976;47.332;9.404;2023-05-10T03:13:06;92331.66;;;10.98;76.20
65376;BME280;51976;47.332;9.404;2023-05-10T03:15:58;92331.84;;;10.88;76.83
65376;BME280;51976;47.332;9.404;2023-05-10T03:18:29;92338.34;;;10.68;77.18
65376;BME280;51976;47.332;9.404;2023-05-10T03:21:02;92336.13;;;10.89;76.63
65376;BME280;51976;47.332;9.404;2023-05-10T03:23:43;92341.75;;;10.92;76.46
65376;BME280;51976;47.332;9.404;2023-05-10T03:26:12;92293.53;;;10.72;76.23
65376;BME280;51976;47.332;9.404;2023-05-10T03:28:40;92236.47;;;10.37;76.18
65376;BME280;51976;47.332;9.404;2023-05-10T03:31:07;92305.03;;;10.64;76.78
65376;BME280;51976;47.332;9.404;2023-05-10T03:33:32;92334.81;;;10.86;76.53
65376;BME280;51976;47.332;9.404;2023-05-10T03:35:58;92343.44;;;10.88;76.33
65376;BME280;51976;47.332;9.404;2023-05-10T03:38:23;92349.22;;;10.95;76.10
65376;BME280;51976;47.332;9.404;2023-05-10T03:40:49;92349.53;;;10.94;75.96
65376;BME280;51976;47.332;9.404;2023-05-10T03:43:14;92291.69;;;10.54;75.91
65376;BME280;51976;47.332;9.404;2023-05-10T03:45:39;92351.25;;;10.71;76.35
65376;BME280;51976;47.332;9.404;2023-05-10T03:48:05;92330.25;;;10.68;76.44
65376;BME280;51976;47.332;9.404;2023-05-10T03:50:30;92354.22;;;10.88;76.58
65376;BME280;51976;47.332;9.404;2023-05-10T03:52:56;92287.91;;;10.55;76.42
65376;BME280;51976;47.332;9.404;2023-05-10T03:55:22;92337.44;;;10.91;76.13
65376;BME280;51976;47.332;9.404;2023-05-10T03:57:47;92295.84;;;10.78;75.67
65376;BME280;51976;47.332;9.404;2023-05-10T04:00:15;92294.75;;;10.79;75.54
65376;BME280;51976;47.332;9.404;2023-05-10T04:02:40;92326.81;;;10.81;75.72
65376;BME280;51976;47.332;9.404;2023-05-10T04:05:06;92346.63;;;10.90;75.75
65376;BME280;51976;47.332;9.404;2023-05-10T04:07:31;92349.56;;;11.07;75.54
65376;BME280;51976;47.332;9.404;2023-05-10T04:09:57;92355.97;;;11.11;75.75
65376;BME280;51976;47.332;9.404;2023-05-10T04:12:22;92358.66;;;11.25;76.38
65376;BME280;51976;47.332;9.404;2023-05-10T04:14:47;92339.91;;;11.20;76.61
65376;BME280;51976;47.332;9.404;2023-05-10T04:17:13;92368.59;;;11.43;76.74
65376;BME280;51976;47.332;9.404;2023-05-10T04:19:38;92322.09;;;11.19;76.38
65376;BME280;51976;47.332;9.404;2023-05-10T04:22:03;92369.47;;;11.52;76.33
65376;BME280;51976;47.332;9.404;2023-05-10T04:24:29;92370.50;;;11.43;75.65
65376;BME280;51976;47.332;9.404;2023-05-10T04:26:54;92319.19;;;11.15;76.19
65376;BME280;51976;47.332;9.404;2023-05-10T04:29:20;92365.69;;;11.53;76.89
65376;BME280;51976;47.332;9.404;2023-05-10T04:31:45;92364.59;;;11.54;75.91
65376;BME280;51976;47.332;9.404;2023-05-10T04:34:12;92343.38;;;11.34;75.45
65376;BME280;51976;47.332;9.404;2023-05-10T04:36:37;92315.72;;;11.15;75.22
65376;BME280;51976;47.332;9.404;2023-05-10T04:39:03;92381.19;;;11.62;76.22
65376;BME280;51976;47.332;9.404;2023-05-10T04:41:29;92371.09;;;11.67;75.97
65376;BME280;51976;47.332;9.404;2023-05-10T04:43:54;92348.19;;;11.37;75.66
65376;BME280;51976;47.332;9.404;2023-05-10T04:46:20;92375.81;;;11.48;75.76
65376;BME280;51976;47.332;9.404;2023-05-10T04:48:45;92372.31;;;11.47;75.63
65376;BME280;51976;47.332;9.404;2023-05-10T04:51:11;92365.09;;;11.43;75.37
65376;BME280;51976;47.332;9.404;2023-05-10T04:53:37;92335.97;;;11.26;75.06
65376;BME280;51976;47.332;9.404;2023-05-10T04:56:02;92314.88;;;11.01;75.36
65376;BME280;51976;47.332;9.404;2023-05-10T04:58:28;92359.09;;;11.46;75.72
65376;BME280;51976;47.332;9.404;2023-05-10T05:00:53;92371.69;;;11.64;75.56
65376;BME280;51976;47.332;9.404;2023-05-10T05:03:19;92303.09;;;11.24;75.44
65376;BME280;51976;47.332;9.404;2023-05-10T05:05:44;92376.72;;;11.71;74.72
65376;BME280;51976;47.332;9.404;2023-05-10T05:08:10;92384.91;;;11.79;76.43
65376;BME280;51976;47.332;9.404;2023-05-10T05:10:35;92314.41;;;11.67;75.54
65376;BME280;51976;47.332;9.404;2023-05-10T05:13:00;92375.69;;;12.22;77.42
65376;BME280;51976;47.332;9.404;2023-05-10T05:15:26;92345.31;;;12.38;75.76
65376;BME280;51976;47.332;9.404;2023-05-10T05:17:51;92298.38;;;12.34;76.58
65376;BME280;51976;47.332;9.404;2023-05-10T05:20:17;92366.97;;;13.05;76.52
65376;BME280;51976;47.332;9.404;2023-05-10T05:22:44;92359.41;;;13.16;75.47
65376;BME280;51976;47.332;9.404;2023-05-10T05:25:09;92374.34;;;13.13;73.44
65376;BME280;51976;47.332;9.404;2023-05-10T05:27:34;92369.81;;;12.56;75.14
65376;BME280;51976;47.332;9.404;2023-05-10T05:30:00;92381.84;;;12.72;75.79
65376;BME280;51976;47.332;9.404;2023-05-10T05:32:26;92388.50;;;12.30;72.66
65376;BME280;51976;47.332;9.404;2023-05-10T05:34:51;92368.63;;;11.98;73.70
65376;BME280;51976;47.332;9.404;2023-05-10T05:37:18;92366.09;;;11.47;73.56
65376;BME280;51976;47.332;9.404;2023-05-10T05:39:44;92331.09;;;11.14;73.79
65376;BME280;51976;47.332;9.404;2023-05-10T05:42:11;92393.31;;;11.64;74.20
65376;BME280;51976;47.332;9.404;2023-05-10T05:44:37;92306.31;;;11.12;73.63
65376;BME280;51976;47.332;9.404;2023-05-10T05:47:02;92403.50;;;11.67;73.65
65376;BME280;51976;47.332;9.404;2023-05-10T05:49:28;92411.06;;;11.38;76.04
65376;BME280;51976;47.332;9.404;2023-05-10T05:51:54;92409.56;;;11.32;76.04
65376;BME280;51976;47.332;9.404;2023-05-10T05:54:20;92415.28;;;11.44;75.81
65376;BME280;51976;47.332;9.404;2023-05-10T05:56:45;92394.25;;;11.27;75.83
65376;BME280;51976;47.332;9.404;2023-05-10T05:59:11;92417.28;;;11.52;75.64
65376;BME280;51976;47.332;9.404;2023-05-10T06:01:36;92395.16;;;11.36;75.87
65376;BME280;51976;47.332;9.404;2023-05-10T06:04:02;92426.38;;;11.56;75.62
65376;BME280;51976;47.332;9.404;2023-05-10T06:06:27;92428.19;;;11.61;75.55
65376;BME280;51976;47.332;9.404;2023-05-10T06:08:53;92424.38;;;11.48;75.71
65376;BME280;51976;47.332;9.404;2023-05-10T06:11:18;92432.94;;;11.36;75.54
65376;BME280;51976;47.332;9.404;2023-05-10T06:13:45;92382.81;;;11.03;75.18
65376;BME280;51976;47.332;9.404;2023-05-10T06:16:11;92388.06;;;10.94;74.92
65376;BME280;51976;47.332;9.404;2023-05-10T06:18:37;92434.34;;;11.01;74.47
65376;BME280;51976;47.332;9.404;2023-05-10T06:21:03;92397.66;;;10.87;74.34
65376;BME280;51976;47.332;9.404;2023-05-10T06:23:28;92447.19;;;11.23;73.66
65376;BME280;51976;47.332;9.404;2023-05-10T06:25:54;92379.00;;;10.71;73.31
65376;BME280;51976;47.332;9.404;2023-05-10T06:28:19;92450.03;;;11.32;74.18
65376;BME280;51976;47.332;9.404;2023-05-10T06:30:45;92450.97;;;11.41;73.92
65376;BME280;51976;47.332;9.404;2023-05-10T06:33:10;92456.00;;;11.29;74.02
65376;BME280;51976;47.332;9.404;2023-05-10T06:35:35;92430.75;;;11.06;73.71
65376;BME280;51976;47.332;9.404;2023-05-10T06:38:04;92390.25;;;10.60;73.89
65376;BME280;51976;47.332;9.404;2023-05-10T06:40:30;92388.91;;;10.76;73.41
65376;BME280;51976;47.332;9.404;2023-05-10T06:42:55;92466.13;;;11.04;74.33
65376;BME280;51976;47.332;9.404;2023-05-10T06:45:21;92400.75;;;10.42;73.90
65376;BME280;51976;47.332;9.404;2023-05-10T06:47:46;92372.34;;;10.31;73.43
65376;BME280;51976;47.332;9.404;2023-05-10T06:50:12;92431.03;;;10.72;73.53
65376;BME280;51976;47.332;9.404;2023-05-10T06:52:37;92462.66;;;10.85;72.30
65376;BME280;51976;47.332;9.404;2023-05-10T06:55:04;92369.38;;;10.33;72.27
65376;BME280;51976;47.332;9.404;2023-05-10T06:57:34;92442.53;;;10.77;72.68
65376;BME280;51976;47.332;9.404;2023-05-10T07:00:01;92463.44;;;11.04;72.46
65376;BME280;51976;47.332;9.404;2023-05-10T07:02:29;92459.44;;;10.83;73.35
65376;BME280;51976;47.332;9.404;2023-05-10T07:04:55;92412.41;;;10.57;73.17
65376;BME280;51976;47.332;9.404;2023-05-10T07:07:21;92458.44;;;10.79;72.96
65376;BME280;51976;47.332;9.404;2023-05-10T07:09:46;92457.41;;;10.94;72.90
65376;BME280;51976;47.332;9.404;2023-05-10T07:12:12;92454.50;;;10.90;72.76
65376;BME280;51976;47.332;9.404;2023-05-10T07:14:37;92460.16;;;11.07;72.55
65376;BME280;51976;47.332;9.404;2023-05-10T07:17:03;92437.13;;;10.96;72.47
65376;BME280;51976;47.332;9.404;2023-05-10T07:19:29;92392.66;;;10.61;73.17
65376;BME280;51976;47.332;9.404;2023-05-10T07:21:54;92445.09;;;10.88;73.76
65376;BME280;51976;47.332;9.404;2023-05-10T07:24:20;92472.28;;;10.91;73.82
65376;BME280;51976;47.332;9.404;2023-05-10T07:26:45;92476.56;;;10.92;74.53
65376;BME280;51976;47.332;9.404;2023-05-10T07:29:11;92465.56;;;10.70;74.44
65376;BME280;51976;47.332;9.404;2023-05-10T07:31:37;92448.66;;;10.27;74.43
65376;BME280;51976;47.332;9.404;2023-05-10T07:34:02;92468.41;;;10.17;75.11
65376;BME280;51976;47.332;9.404;2023-05-10T07:36:28;92477.84;;;10.14;74.01
65376;BME280;51976;47.332;9.404;2023-05-10T07:38:53;92450.25;;;10.04;73.35
65376;BME280;51976;47.332;9.404;2023-05-10T07:41:19;92482.88;;;10.26;72.90
65376;BME280;51976;47.332;9.404;2023-05-10T07:43:46;92430.84;;;10.07;73.16
65376;BME280;51976;47.332;9.404;2023-05-10T07:46:11;92486.63;;;10.49;72.87
65376;BME280;51976;47.332;9.404;2023-05-10T07:48:37;92423.75;;;9.68;72.15
65376;BME280;51976;47.332;9.404;2023-05-10T07:51:02;92456.03;;;9.92;71.63
65376;BME280;51976;47.332;9.404;2023-05-10T07:53:28;92482.19;;;10.39;70.98
65376;BME280;51976;47.332;9.404;2023-05-10T07:55:54;92388.78;;;9.68;72.25
65376;BME280;51976;47.332;9.404;2023-05-10T07:58:23;92454.44;;;9.67;74.21
65376;BME280;51976;47.332;9.404;2023-05-10T08:00:49;92488.78;;;9.80;74.28
65376;BME280;51976;47.332;9.404;2023-05-10T08:03:14;92471.22;;;9.59;75.61
65376;BME280;51976;47.332;9.404;2023-05-10T08:05:40;92448.75;;;9.45;76.74
65376;BME280;51976;47.332;9.404;2023-05-10T08:08:06;92464.78;;;9.84;76.12
65376;BME280;51976;47.332;9.404;2023-05-10T08:10:32;92486.41;;;9.74;76.31
65376;BME280;51976;47.332;9.404;2023-05-10T08:12:57;92501.66;;;10.07;76.68
65376;BME280;51976;47.332;9.404;2023-05-10T08:15:24;92504.88;;;10.33;75.84
65376;BME280;51976;47.332;9.404;2023-05-10T08:17:51;92489.94;;;10.22;75.50
65376;BME280;51976;47.332;9.404;2023-05-10T08:20:17;92485.31;;;9.75;76.01
65376;BME280;51976;47.332;9.404;2023-05-10T08:22:47;92512.78;;;10.01;76.69
65376;BME280;51976;47.332;9.404;2023-05-10T08:25:12;92506.53;;;9.81;76.59
65376;BME280;51976;47.332;9.404;2023-05-10T08:27:38;92474.28;;;9.76;76.69
65376;BME280;51976;47.332;9.404;2023-05-10T08:30:03;92502.31;;;10.23;77.02
65376;BME280;51976;47.332;9.404;2023-05-10T08:32:29;92484.84;;;10.15;75.27
65376;BME280;51976;47.332;9.404;2023-05-10T08:34:55;92496.13;;;10.41;75.46
65376;BME280;51976;47.332;9.404;2023-05-10T08:37:22;92483.28;;;10.38;74.63
65376;BME280;51976;47.332;9.404;2023-05-10T08:39:48;92509.94;;;10.59;74.54
65376;BME280;51976;47.332;9.404;2023-05-10T08:42:16;92487.13;;;10.32;76.00
65376;BME280;51976;47.332;9.404;2023-05-10T08:44:45;92512.25;;;10.46;76.33
65376;BME280;51976;47.332;9.404;2023-05-10T08:47:15;92518.31;;;10.57;76.23
65376;BME280;51976;47.332;9.404;2023-05-10T08:49:43;92491.84;;;10.40;76.10
65376;BME280;51976;47.332;9.404;2023-05-10T08:52:10;92511.31;;;10.37;76.82
65376;BME280;51976;47.332;9.404;2023-05-10T08:54:38;92518.16;;;10.48;76.25
65376;BME280;51976;47.332;9.404;2023-05-10T08:57:04;92518.59;;;10.56;76.03
65376;BME280;51976;47.332;9.404;2023-05-10T08:59:30;92518.88;;;10.54;77.13
65376;BME280;51976;47.332;9.404;2023-05-10T09:01:58;92496.13;;;10.65;77.47
65376;BME280;51976;47.332;9.404;2023-05-10T09:04:24;92424.13;;;10.28;77.05
65376;BME280;51976;47.332;9.404;2023-05-10T09:06:50;92512.06;;;10.80;76.81
65376;BME280;51976;47.332;9.404;2023-05-10T09:09:17;92519.63;;;10.97;76.48
65376;BME280;51976;47.332;9.404;2023-05-10T09:11:43;92515.84;;;10.98;75.77
65376;BME280;51976;47.332;9.404;2023-05-10T09:14:09;92517.59;;;11.08;76.30
65376;BME280;51976;47.332;9.404;2023-05-10T09:16:35;92519.94;;;11.14;76.47
65376;BME280;51976;47.332;9.404;2023-05-10T09:19:03;92517.56;;;11.27;76.54
65376;BME280;51976;47.332;9.404;2023-05-10T09:21:31;92512.78;;;11.05;75.67
65376;BME280;51976;47.332;9.404;2023-05-10T09:23:56;92507.47;;;10.81;76.54
65376;BME280;51976;47.332;9.404;2023-05-10T09:26:23;92522.31;;;10.97;77.30
65376;BME280;51976;47.332;9.404;2023-05-10T09:28:56;92502.72;;;11.10;77.05
65376;BME280;51976;47.332;9.404;2023-05-10T09:31:23;92516.81;;;11.40;76.36
65376;BME280;51976;47.332;9.404;2023-05-10T09:33:50;92417.63;;;10.67;73.69
65376;BME280;51976;47.332;9.404;2023-05-10T09:36:17;92513.16;;;11.17;73.93
65376;BME280;51976;47.332;9.404;2023-05-10T09:38:49;92516.25;;;11.24;74.22
65376;BME280;51976;47.332;9.404;2023-05-10T09:41:23;92506.94;;;11.16;74.29
65376;BME280;51976;47.332;9.404;2023-05-10T09:43:50;92508.44;;;10.90;72.98
65376;BME280;51976;47.332;9.404;2023-05-10T09:46:21;92516.06;;;11.02;72.72
65376;BME280;51976;47.332;9.404;2023-05-10T09:48:47;92480.75;;;10.66;71.59
65376;BME280;51976;47.332;9.404;2023-05-10T09:51:24;92538.59;;;10.92;69.90
65376;BME280;51976;47.332;9.404;2023-05-10T09:54:12;92542.13;;;10.69;70.34
65376;BME280;51976;47.332;9.404;2023-05-10T09:56:39;92484.72;;;10.31;69.83
65376;BME280;51976;47.332;9.404;2023-05-10T09:59:09;92551.44;;;10.39;68.99
65376;BME280;51976;47.332;9.404;2023-05-10T10:01:35;92523.56;;;10.25;69.70
65376;BME280;51976;47.332;9.404;2023-05-10T10:04:07;92513.72;;;10.39;69.53
65376;BME280;51976;47.332;9.404;2023-05-10T10:06:39;92452.97;;;9.80;69.53
65376;BME280;51976;47.332;9.404;2023-05-10T10:09:05;92526.53;;;10.23;68.61
65376;BME280;51976;47.332;9.404;2023-05-10T10:11:31;92544.09;;;10.15;68.95
65376;BME280;51976;47.332;9.404;2023-05-10T10:13:57;92485.94;;;9.67;69.18
65376;BME280;51976;47.332;9.404;2023-05-10T10:16:24;92534.09;;;9.97;68.12
65376;BME280;51976;47.332;9.404;2023-05-10T10:18:49;92502.22;;;9.80;68.85
65376;BME280;51976;47.332;9.404;2023-05-10T10:21:15;92546.78;;;10.15;67.45
65376;BME280;51976;47.332;9.404;2023-05-10T10:23:41;92524.59;;;10.05;66.49
65376;BME280;51976;47.332;9.404;2023-05-10T10:26:08;92545.19;;;10.14;65.81
65376;BME280;51976;47.332;9.404;2023-05-10T10:28:48;92526.75;;;10.03;66.03
65376;BME280;51976;47.332;9.404;2023-05-10T10:31:47;92521.06;;;10.33;65.25
65376;BME280;51976;47.332;9.404;2023-05-10T10:34:28;92535.31;;;10.34;65.53
65376;BME280;51976;47.332;9.404;2023-05-10T10:36:56;92531.78;;;10.38;65.50
65376;BME280;51976;47.332;9.404;2023-05-10T10:39:22;92528.31;;;10.33;65.82
65376;BME280;51976;47.332;9.404;2023-05-10T10:41:55;92537.06;;;10.43;66.03
65376;BME280;51976;47.332;9.404;2023-05-10T10:44:34;92532.34;;;10.35;66.53
65376;BME280;51976;47.332;9.404;2023-05-10T10:47:06;92528.91;;;10.30;66.59
65376;BME280;51976;47.332;9.404;2023-05-10T10:49:48;92509.00;;;10.26;67.02
65376;BME280;51976;47.332;9.404;2023-05-10T10:52:33;92523.50;;;10.72;68.61
65376;BME280;51976;47.332;9.404;2023-05-10T10:55:07;92501.09;;;10.34;67.88
65376;BME280;51976;47.332;9.404;2023-05-10T10:57:47;92523.34;;;10.64;66.41
65376;BME280;51976;47.332;9.404;2023-05-10T11:00:25;92519.19;;;10.71;66.89
65376;BME280;51976;47.332;9.404;2023-05-10T11:02:58;92513.44;;;10.59;66.84
65376;BME280;51976;47.332;9.404;2023-05-10T11:05:38;92498.50;;;10.67;65.47
65376;BME280;51976;47.332;9.404;2023-05-10T11:08:10;92522.91;;;10.94;65.70
65376;BME280;51976;47.332;9.404;2023-05-10T11:10:37;92457.31;;;10.42;66.29
65376;BME280;51976;47.332;9.404;2023-05-10T11:13:07;92499.81;;;10.88;67.13
65376;BME280;51976;47.332;9.404;2023-05-10T11:15:38;92526.84;;;11.21;66.08
65376;BME280;51976;47.332;9.404;2023-05-10T11:18:17;92520.47;;;11.30;65.42
65376;BME280;51976;47.332;9.404;2023-05-10T11:20:44;92527.03;;;11.43;65.50
65376;BME280;51976;47.332;9.404;2023-05-10T11:23:12;92510.84;;;11.43;64.90
65376;BME280;51976;47.332;9.404;2023-05-10T11:25:42;92532.03;;;11.49;65.48
65376;BME280;51976;47.332;9.404;2023-05-10T11:28:09;92506.53;;;11.42;65.22
65376;BME280;51976;47.332;9.404;2023-05-10T11:30:36;92537.66;;;11.53;65.05
65376;BME280;51976;47.332;9.404;2023-05-10T11:33:03;92508.50;;;11.36;65.48
65376;BME280;51976;47.332;9.404;2023-05-10T11:35:30;92524.88;;;11.59;66.66
65376;BME280;51976;47.332;9.404;2023-05-10T11:37:55;92523.06;;;11.54;66.21
65376;BME280;51976;47.332;9.404;2023-05-10T11:40:23;92526.91;;;11.34;67.08
65376;BME280;51976;47.332;9.404;2023-05-10T11:42:50;92531.59;;;11.61;66.56
65376;BME280;51976;47.332;9.404;2023-05-10T11:45:15;92423.63;;;11.15;66.48
65376;BME280;51976;47.332;9.404;2023-05-10T11:47:41;92530.44;;;11.81;66.63
65376;BME280;51976;47.332;9.404;2023-05-10T11:50:09;92511.50;;;11.67;67.08
65376;BME280;51976;47.332;9.404;2023-05-10T11:52:36;92533.19;;;11.62;67.18
65376;BME280;51976;47.332;9.404;2023-05-10T11:55:04;92506.69;;;11.32;67.30
65376;BME280;51976;47.332;9.404;2023-05-10T11:57:30;92528.09;;;11.61;66.62
65376;BME280;51976;47.332;9.404;2023-05-10T11:59:57;92536.44;;;11.45;66.37
65376;BME280;51976;47.332;9.404;2023-05-10T12:02:22;92529.81;;;11.38;67.21
65376;BME280;51976;47.332;9.404;2023-05-10T12:04:49;92537.66;;;11.53;67.71
65376;BME280;51976;47.332;9.404;2023-05-10T12:07:14;92516.69;;;11.31;68.75
65376;BME280;51976;47.332;9.404;2023-05-10T12:10:04;92545.75;;;11.53;68.61
65376;BME280;51976;47.332;9.404;2023-05-10T12:12:38;92495.13;;;11.12;68.22
65376;BME280;51976;47.332;9.404;2023-05-10T12:15:05;92539.72;;;11.42;68.57
65376;BME280;51976;47.332;9.404;2023-05-10T12:17:31;92502.88;;;10.81;69.25
65376;BME280;51976;47.332;9.404;2023-05-10T12:20:13;92546.91;;;11.14;69.64
65376;BME280;51976;47.332;9.404;2023-05-10T12:22:39;92511.63;;;10.92;70.61
65376;BME280;51976;47.332;9.404;2023-05-10T12:25:06;92547.81;;;11.24;71.63
65376;BME280;51976;47.332;9.404;2023-05-10T12:27:32;92401.25;;;10.44;71.56
65376;BME280;51976;47.332;9.404;2023-05-10T12:29:59;92554.03;;;11.43;70.87
65376;BME280;51976;47.332;9.404;2023-05-10T12:32:40;92546.59;;;11.35;70.44
65376;BME280;51976;47.332;9.404;2023-05-10T12:35:07;92463.25;;;10.82;70.90
65376;BME280;51976;47.332;9.404;2023-05-10T12:37:33;92554.94;;;11.19;71.45
65376;BME280;51976;47.332;9.404;2023-05-10T12:40:05;92557.88;;;11.37;71.82
65376;BME280;51976;47.332;9.404;2023-05-10T12:42:32;92561.75;;;11.31;71.95
65376;BME280;51976;47.332;9.404;2023-05-10T12:44:57;92563.72;;;11.44;71.35
65376;BME280;51976;47.332;9.404;2023-05-10T12:47:23;92563.50;;;11.03;70.59
65376;BME280;51976;47.332;9.404;2023-05-10T12:49:48;92564.19;;;11.13;71.63
65376;BME280;51976;47.332;9.404;2023-05-10T12:52:14;92557.59;;;11.38;70.46
65376;BME280;51976;47.332;9.404;2023-05-10T12:54:39;92555.19;;;11.37;71.09
65376;BME280;51976;47.332;9.404;2023-05-10T12:57:05;92562.81;;;11.16;71.44
65376;BME280;51976;47.332;9.404;2023-05-10T12:59:30;92562.50;;;10.99;72.47
65376;BME280;51976;47.332;9.404;2023-05-10T13:01:57;92561.09;;;10.82;72.40
65376;BME280;51976;47.332;9.404;2023-05-10T13:04:22;92525.84;;;10.79;72.70
65376;BME280;51976;47.332;9.404;2023-05-10T13:06:47;92540.63;;;10.81;71.58